Time;durP1;ratioP1;P1;durP2;ratioP2;P2;SDS_P1;SDS_P2;PMS_P1;PMS_P2;Temp;Humidity;BMP_temperature;BMP_pressure;BME280_temperature;BME280_humidity;BME280_pressure;Samples;Min_cycle;Max_cycle;Signal;HPM_P1;HPM_P2
2022/01/20 00:01:59;;;;;;;7.20;2.67;;;3.60;99.90;;;;;;5030429;28;20041;-70
2022/01/20 00:07:25;;;;;;;4.75;2.97;;;3.60;99.90;;;;;;5011345;28;20108;-69
2022/01/20 00:23:10;;;;;;;4.85;3.00;;;3.50;99.90;;;;;;5002555;28;20051;-71
2022/01/20 00:23:41;;;;;;;5.50;2.20;;;3.40;99.90;;;;;;5020810;28;20056;-68
2022/01/20 00:26:09;;;;;;;3.92;2.05;;;3.40;99.90;;;;;;5026780;28;20052;-68
2022/01/20 00:31:26;;;;;;;4.13;2.25;;;3.30;99.90;;;;;;5018029;28;20057;-74
2022/01/20 00:34:13;;;;;;;6.65;3.42;;;3.30;99.90;;;;;;5030664;28;20076;-68
2022/01/20 00:39:26;;;;;;;4.15;2.42;;;3.20;99.90;;;;;;5002339;28;20128;-69
2022/01/20 00:41:54;;;;;;;7.55;2.78;;;3.20;99.90;;;;;;5017240;28;20068;-69
2022/01/20 00:44:22;;;;;;;6.65;2.60;;;3.20;99.90;;;;;;5000694;28;20089;-69
2022/01/20 00:46:49;;;;;;;4.40;2.90;;;3.10;99.90;;;;;;5035428;28;20385;-69
2022/01/20 00:49:16;;;;;;;4.13;2.63;;;3.10;99.90;;;;;;5034973;28;20478;-69
2022/01/20 00:51:43;;;;;;;4.72;2.28;;;3.10;99.90;;;;;;5034455;28;20481;-69
2022/01/20 00:54:18;;;;;;;4.75;2.50;;;3.10;99.90;;;;;;5034574;28;20045;-69
2022/01/20 00:56:44;;;;;;;6.70;2.95;;;3.10;99.90;;;;;;5034784;28;20049;-69
2022/01/20 00:59:13;;;;;;;7.25;3.03;;;3.10;99.90;;;;;;4998703;28;20050;-69
2022/01/20 01:01:40;;;;;;;6.55;2.90;;;3.00;99.90;;;;;;5000469;28;20056;-69
2022/01/20 01:04:07;;;;;;;6.93;3.05;;;3.00;99.90;;;;;;5018432;28;20354;-69
2022/01/20 01:06:45;;;;;;;5.80;2.80;;;3.00;99.90;;;;;;5000759;28;20053;-69
2022/01/20 01:09:12;;;;;;;5.43;3.00;;;3.00;99.90;;;;;;5002260;28;20319;-68
2022/01/20 01:11:42;;;;;;;5.43;2.53;;;3.00;99.90;;;;;;5034099;28;20103;-69
2022/01/20 01:14:09;;;;;;;6.60;3.17;;;3.00;99.90;;;;;;5033648;28;20409;-69
2022/01/20 01:20:07;;;;;;;5.15;3.00;;;2.90;99.90;;;;;;5016211;28;20068;-70
2022/01/20 01:24:41;;;;;;;5.93;2.65;;;2.80;99.90;;;;;;5034103;28;20073;-69
2022/01/20 01:27:09;;;;;;;7.38;2.63;;;2.80;99.90;;;;;;5002355;28;20147;-69
2022/01/20 01:30:04;;;;;;;8.60;3.22;;;2.80;99.90;;;;;;4999341;28;20136;-69
2022/01/20 01:32:36;;;;;;;4.65;2.60;;;2.80;99.90;;;;;;5027513;28;20046;-70
2022/01/20 01:35:07;;;;;;;5.13;2.15;;;2.80;99.90;;;;;;4997362;28;20136;-68
2022/01/20 01:40:04;;;;;;;5.40;2.75;;;2.70;99.90;;;;;;5015982;28;20045;-69
2022/01/20 01:42:54;;;;;;;6.90;3.17;;;2.70;99.90;;;;;;5017585;28;20041;-69
2022/01/20 01:45:32;;;;;;;7.93;3.22;;;2.70;99.90;;;;;;5002262;28;20049;-69
2022/01/20 01:47:59;;;;;;;4.75;2.83;;;2.60;99.90;;;;;;5013659;28;20052;-68
2022/01/20 01:50:26;;;;;;;3.92;2.20;;;2.60;99.90;;;;;;4996670;28;20049;-68
2022/01/20 01:52:54;;;;;;;4.13;2.67;;;2.60;99.90;;;;;;4998179;28;20041;-69
2022/01/20 01:55:21;;;;;;;5.68;2.95;;;2.60;99.90;;;;;;5022007;28;20050;-69
2022/01/20 01:57:48;;;;;;;4.25;2.60;;;2.60;99.90;;;;;;5011690;28;20474;-69
2022/01/20 02:00:16;;;;;;;6.43;2.70;;;2.60;99.90;;;;;;4995674;28;20052;-69
2022/01/20 02:02:43;;;;;;;5.68;2.58;;;2.50;99.90;;;;;;5013410;28;20052;-68
2022/01/20 02:05:13;;;;;;;4.63;2.67;;;2.60;99.90;;;;;;5004071;28;20053;-69
2022/01/20 02:18:49;;;;;;;5.43;3.00;;;2.50;99.90;;;;;;4998859;28;20045;-69
2022/01/20 02:21:16;;;;;;;5.30;2.65;;;2.50;99.90;;;;;;5013192;28;20046;-69
2022/01/20 02:23:44;;;;;;;3.53;2.40;;;2.50;99.90;;;;;;5013335;28;20076;-69
2022/01/20 02:26:12;;;;;;;9.10;3.35;;;2.50;99.90;;;;;;4992098;28;20072;-68
2022/01/20 02:28:39;;;;;;;4.32;2.40;;;2.50;99.90;;;;;;4986788;28;20566;-70
2022/01/20 02:31:06;;;;;;;7.03;3.88;;;2.50;99.90;;;;;;4995520;28;20146;-68
2022/01/20 02:33:34;;;;;;;5.07;2.40;;;2.40;99.90;;;;;;5012478;28;20124;-73
2022/01/20 02:36:09;;;;;;;4.93;2.60;;;2.40;99.90;;;;;;4995242;28;20046;-69
2022/01/20 02:38:41;;;;;;;8.98;3.10;;;2.40;99.90;;;;;;4992209;28;20089;-70
2022/01/20 02:46:39;;;;;;;5.40;2.38;;;2.40;99.90;;;;;;5019106;28;20045;-69
2022/01/20 02:49:09;;;;;;;4.53;2.65;;;2.30;99.90;;;;;;5032268;28;20377;-69
2022/01/20 02:51:36;;;;;;;;;;;2.30;99.90;;;;;;5022100;28;20046;-70
2022/01/20 02:54:03;;;;;;;7.88;2.53;;;2.30;99.90;;;;;;5025693;28;19948;-69
2022/01/20 02:56:30;;;;;;;5.82;2.65;;;2.30;99.90;;;;;;5036919;28;20119;-68
2022/01/20 02:58:58;;;;;;;6.38;2.63;;;2.30;99.90;;;;;;5015916;28;20053;-69
2022/01/20 03:01:24;;;;;;;4.00;2.53;;;2.30;99.90;;;;;;5011566;28;20053;-69
2022/01/20 03:03:52;;;;;;;5.05;3.05;;;2.20;99.90;;;;;;5026891;28;20091;-69
2022/01/20 03:06:19;;;;;;;3.78;2.47;;;2.20;99.90;;;;;;5017581;28;20088;-70
2022/01/20 03:08:45;;;;;;;4.82;2.58;;;2.20;99.90;;;;;;5032053;28;20053;-71
2022/01/20 03:11:13;;;;;;;5.43;3.63;;;2.20;99.90;;;;;;5012330;28;20485;-69
2022/01/20 03:13:39;;;;;;;5.85;2.88;;;2.10;99.90;;;;;;5010853;28;20046;-69
2022/01/20 03:16:07;;;;;;;8.30;3.92;;;2.10;99.90;;;;;;5024116;28;20049;-69
2022/01/20 03:18:34;;;;;;;5.03;3.08;;;2.10;99.90;;;;;;4999390;28;20160;-69
2022/01/20 03:21:01;;;;;;;6.80;2.67;;;2.10;99.90;;;;;;5032000;28;20120;-70
2022/01/20 03:23:28;;;;;;;4.65;2.50;;;2.10;99.90;;;;;;5032530;28;20116;-69
2022/01/20 03:25:55;;;;;;;4.43;2.60;;;2.00;99.90;;;;;;5013967;28;20125;-69
2022/01/20 03:28:21;;;;;;;5.65;2.65;;;2.00;99.90;;;;;;5013040;28;20042;-73
2022/01/20 03:30:48;;;;;;;7.60;2.80;;;2.00;99.90;;;;;;5010907;28;20057;-69
2022/01/20 03:33:15;;;;;;;6.40;2.22;;;2.00;99.90;;;;;;5026412;28;20048;-69
2022/01/20 03:35:42;;;;;;;6.60;3.42;;;1.90;99.90;;;;;;4999739;28;20049;-70
2022/01/20 03:38:10;;;;;;;5.43;3.17;;;1.90;99.90;;;;;;5031272;28;20060;-69
2022/01/20 03:40:37;;;;;;;3.88;2.50;;;1.90;99.90;;;;;;5032104;28;20045;-69
2022/01/20 03:43:04;;;;;;;3.85;2.80;;;1.90;99.90;;;;;;5023522;28;20061;-69
2022/01/20 03:45:30;;;;;;;5.40;2.72;;;1.90;99.90;;;;;;5013458;28;20507;-69
2022/01/20 03:48:06;;;;;;;4.53;2.55;;;1.90;99.90;;;;;;4998225;28;20045;-69
2022/01/20 03:53:20;;;;;;;4.45;3.13;;;1.80;99.90;;;;;;5011981;28;20072;-69
2022/01/20 03:55:47;;;;;;;5.35;2.50;;;1.80;99.90;;;;;;5013927;28;20050;-69
2022/01/20 03:58:14;;;;;;;5.63;2.92;;;1.80;99.90;;;;;;5014222;28;20400;-69
2022/01/20 04:00:41;;;;;;;4.03;2.58;;;1.80;99.90;;;;;;5026707;28;20133;-69
2022/01/20 04:03:08;;;;;;;4.05;2.50;;;1.80;99.90;;;;;;5014539;28;20261;-69
2022/01/20 04:05:40;;;;;;;5.85;2.13;;;1.80;99.90;;;;;;5014863;28;20062;-69
2022/01/20 04:08:07;;;;;;;4.35;2.50;;;1.80;99.90;;;;;;5012765;28;20052;-69
2022/01/20 04:10:34;;;;;;;5.47;2.40;;;1.80;99.90;;;;;;5017500;28;20149;-69
2022/01/20 04:13:01;;;;;;;3.22;1.88;;;1.80;99.90;;;;;;5017676;28;20042;-69
2022/01/20 04:15:37;;;;;;;4.80;2.38;;;1.80;99.90;;;;;;5023270;28;20057;-69
2022/01/20 04:18:07;;;;;;;10.68;4.95;;;1.80;99.90;;;;;;5019666;28;20056;-69
2022/01/20 04:20:34;;;;;;;4.53;2.47;;;1.80;99.90;;;;;;5016642;28;20046;-69
2022/01/20 04:23:01;;;;;;;5.80;2.65;;;1.80;99.90;;;;;;5034918;28;20053;-69
2022/01/20 04:25:28;;;;;;;3.75;2.60;;;1.80;99.90;;;;;;5017591;28;20049;-69
2022/01/20 04:27:55;;;;;;;7.50;2.58;;;1.80;99.90;;;;;;5016223;28;20141;-69
2022/01/20 04:30:22;;;;;;;4.97;3.20;;;1.80;99.90;;;;;;5031896;28;20060;-69
2022/01/20 04:32:49;;;;;;;4.60;2.42;;;1.80;99.90;;;;;;5016110;28;20137;-69
2022/01/20 04:35:19;;;;;;;4.55;2.45;;;1.80;99.90;;;;;;5016426;28;20069;-69
2022/01/20 04:37:48;;;;;;;4.97;2.47;;;1.80;99.90;;;;;;5014415;28;20050;-69
2022/01/20 04:40:16;;;;;;;4.13;2.25;;;1.90;99.90;;;;;;4998297;28;20104;-70
2022/01/20 04:42:45;;;;;;;6.13;2.20;;;1.90;99.90;;;;;;5017321;28;20050;-69
2022/01/20 04:45:17;;;;;;;5.25;2.45;;;1.80;99.90;;;;;;5017396;28;20132;-69
2022/01/20 04:47:53;;;;;;;3.63;2.00;;;1.80;99.90;;;;;;5013621;28;20249;-73
2022/01/20 04:58:36;;;;;;;3.90;1.83;;;1.80;99.90;;;;;;5015093;28;20057;-69
2022/01/20 05:01:03;;;;;;;4.75;2.20;;;1.80;99.90;;;;;;4998519;28;20523;-69
2022/01/20 05:03:30;;;;;;;5.40;2.25;;;1.80;99.90;;;;;;5021171;28;20054;-69
2022/01/20 05:05:58;;;;;;;3.35;1.58;;;1.70;99.90;;;;;;5029872;28;20042;-70
2022/01/20 05:08:28;;;;;;;5.13;2.55;;;1.70;99.90;;;;;;4997410;28;20054;-71
2022/01/20 05:10:55;;;;;;;5.18;2.30;;;1.70;99.90;;;;;;4998856;28;20064;-69
2022/01/20 05:13:24;;;;;;;3.60;2.95;;;1.70;99.90;;;;;;5019594;28;20125;-69
2022/01/20 05:15:51;;;;;;;4.05;1.80;;;1.70;99.90;;;;;;5014500;28;20072;-69
2022/01/20 05:18:18;;;;;;;5.65;3.20;;;1.70;99.90;;;;;;5014128;28;20489;-69
2022/01/20 05:20:45;;;;;;;4.68;2.40;;;1.70;99.90;;;;;;5014550;28;20560;-69
2022/01/20 05:23:12;;;;;;;3.28;2.22;;;1.70;99.90;;;;;;5014624;28;20096;-69
2022/01/20 05:25:39;;;;;;;5.90;2.33;;;1.70;99.90;;;;;;5029994;28;20104;-71
2022/01/20 05:28:06;;;;;;;3.83;2.05;;;1.70;99.90;;;;;;5013060;28;20075;-69
2022/01/20 05:30:33;;;;;;;3.47;1.73;;;1.70;99.90;;;;;;4999723;28;20050;-69
2022/01/20 05:33:00;;;;;;;3.05;1.90;;;1.70;99.90;;;;;;5022613;28;20069;-69
2022/01/20 05:35:28;;;;;;;3.65;2.00;;;1.70;99.90;;;;;;5020412;28;20121;-69
2022/01/20 05:37:55;;;;;;;5.28;2.70;;;1.70;99.90;;;;;;5024888;28;20412;-69
2022/01/20 05:40:22;;;;;;;3.83;1.90;;;1.80;99.90;;;;;;5016175;28;20050;-69
2022/01/20 05:42:49;;;;;;;6.43;2.45;;;1.80;99.90;;;;;;5015933;28;20037;-68
2022/01/20 05:45:16;;;;;;;6.78;3.50;;;1.80;99.90;;;;;;5012439;28;20052;-69
2022/01/20 05:47:46;;;;;;;3.83;1.92;;;1.80;99.90;;;;;;5014063;28;20060;-69
2022/01/20 05:50:18;;;;;;;5.30;3.53;;;1.80;99.90;;;;;;5010040;28;20046;-70
2022/01/20 05:52:45;;;;;;;4.97;2.33;;;1.80;99.90;;;;;;4980668;28;20064;-69
2022/01/20 05:55:13;;;;;;;5.30;2.38;;;1.90;99.90;;;;;;4980506;28;20393;-69
2022/01/20 05:57:41;;;;;;;4.47;1.92;;;1.90;99.90;;;;;;4996615;28;20060;-69
2022/01/20 06:00:11;;;;;;;4.00;2.47;;;2.00;99.90;;;;;;4996376;28;20597;-69
2022/01/20 06:03:36;;;;;;;4.05;1.80;;;2.00;99.90;;;;;;5013820;28;20053;-69
2022/01/20 06:05:25;;;;;;;4.75;2.47;;;2.00;99.90;;;;;;5012937;28;20049;-69
2022/01/20 06:07:52;;;;;;;4.78;2.17;;;2.10;99.90;;;;;;5012505;28;20052;-69
2022/01/20 06:10:19;;;;;;;4.97;2.10;;;2.10;99.90;;;;;;5012847;28;20081;-70
2022/01/20 06:12:46;;;;;;;4.75;1.67;;;2.20;99.90;;;;;;4997239;28;20073;-69
2022/01/20 06:15:13;;;;;;;7.70;2.17;;;2.20;99.90;;;;;;5000407;28;20051;-69
2022/01/20 06:17:41;;;;;;;4.95;2.00;;;2.20;99.90;;;;;;5028171;28;20111;-69
2022/01/20 06:20:11;;;;;;;8.77;4.60;;;2.20;99.90;;;;;;5012474;28;20382;-69
2022/01/20 06:22:38;;;;;;;5.40;2.55;;;2.30;99.90;;;;;;4997166;28;20448;-69
2022/01/20 06:25:06;;;;;;;10.98;3.50;;;2.30;99.90;;;;;;4996734;28;20046;-69
2022/01/20 06:27:33;;;;;;;11.30;3.85;;;2.30;99.90;;;;;;4996263;28;20052;-68
2022/01/20 06:30:00;;;;;;;5.60;2.10;;;2.30;99.90;;;;;;4979701;28;20050;-69
2022/01/20 06:32:27;;;;;;;3.65;1.85;;;2.30;99.90;;;;;;4996296;28;20485;-69
2022/01/20 06:34:54;;;;;;;6.75;1.83;;;2.40;99.90;;;;;;5012074;28;20045;-69
2022/01/20 06:37:21;;;;;;;5.25;2.63;;;2.40;99.90;;;;;;5012218;28;20075;-69
2022/01/20 06:39:48;;;;;;;4.75;2.28;;;2.30;99.90;;;;;;5013129;28;20048;-68
2022/01/20 06:42:15;;;;;;;3.80;1.90;;;2.30;99.90;;;;;;5012230;28;20056;-69
2022/01/20 06:44:43;;;;;;;7.93;2.67;;;2.30;99.90;;;;;;5031963;28;20060;-74
2022/01/20 06:47:10;;;;;;;4.50;2.00;;;2.30;99.90;;;;;;5029614;28;20065;-72
2022/01/20 06:49:37;;;;;;;5.93;3.47;;;2.30;99.90;;;;;;5027912;28;20136;-73
2022/01/20 06:52:04;;;;;;;36.03;27.15;;;2.20;99.90;;;;;;5029975;28;20054;-74
2022/01/20 06:54:31;;;;;;;18.55;10.20;;;2.20;99.90;;;;;;5030378;28;20045;-73
2022/01/20 06:56:59;;;;;;;12.50;7.15;;;2.20;99.90;;;;;;5030358;28;20083;-73
2022/01/20 06:59:26;;;;;;;9.02;4.82;;;2.10;99.90;;;;;;5014235;28;20128;-75
2022/01/20 07:01:53;;;;;;;7.85;4.05;;;2.10;99.90;;;;;;5027730;28;20451;-75
2022/01/20 07:04:20;;;;;;;5.72;3.17;;;2.00;99.90;;;;;;5013639;28;20159;-76
2022/01/20 07:06:47;;;;;;;5.43;2.80;;;2.00;99.90;;;;;;5005927;28;20041;-76
2022/01/20 07:09:14;;;;;;;4.97;3.10;;;1.90;99.90;;;;;;5029440;28;20442;-75
2022/01/20 07:11:41;;;;;;;8.80;2.95;;;1.90;99.90;;;;;;5027925;28;20045;-72
2022/01/20 07:14:08;;;;;;;4.55;2.78;;;2.00;99.90;;;;;;5011441;28;20129;-78
2022/01/20 07:16:35;;;;;;;75.90;47.65;;;2.00;99.90;;;;;;5013086;28;20077;-76
2022/01/20 07:19:02;;;;;;;28.60;16.50;;;1.90;99.90;;;;;;4995519;28;20064;-78
2022/01/20 07:21:29;;;;;;;20.83;12.38;;;2.00;99.90;;;;;;5028976;28;20049;-78
2022/01/20 07:23:56;;;;;;;14.73;8.85;;;2.00;99.90;;;;;;5014936;28;20562;-80
2022/01/20 07:26:23;;;;;;;13.38;8.57;;;1.90;99.90;;;;;;5011894;28;20049;-78
2022/01/20 07:28:50;;;;;;;10.32;6.38;;;1.90;99.90;;;;;;5011918;28;20411;-79
2022/01/20 07:31:22;;;;;;;12.88;4.72;;;1.90;99.90;;;;;;5027862;28;20081;-74
2022/01/20 07:33:50;;;;;;;10.10;3.47;;;1.90;99.90;;;;;;5033406;28;20590;-71
2022/01/20 07:36:17;;;;;;;7.20;3.30;;;1.80;99.90;;;;;;5011414;28;20057;-71
2022/01/20 07:38:44;;;;;;;4.65;2.83;;;1.80;99.90;;;;;;5020882;28;20056;-71
2022/01/20 07:41:11;;;;;;;4.35;2.08;;;1.80;99.90;;;;;;5028869;28;20052;-74
2022/01/20 07:43:41;;;;;;;5.18;2.55;;;1.80;99.90;;;;;;5018008;28;20093;-70
2022/01/20 07:46:08;;;;;;;4.47;2.33;;;1.80;99.90;;;;;;5008766;28;20057;-70
2022/01/20 07:48:35;;;;;;;4.75;2.55;;;1.70;99.90;;;;;;5007321;28;20061;-72
2022/01/20 07:51:04;;;;;;;5.35;2.55;;;1.70;99.90;;;;;;4999374;28;20060;-71
2022/01/20 07:53:32;;;;;;;3.15;1.92;;;1.70;99.90;;;;;;4980312;28;20053;-71
2022/01/20 07:56:00;;;;;;;3.88;1.90;;;1.70;99.90;;;;;;5003098;28;20077;-71
2022/01/20 07:58:27;;;;;;;4.28;1.77;;;1.60;99.90;;;;;;5001485;28;20049;-72
2022/01/20 08:00:54;;;;;;;12.60;8.75;;;1.60;99.90;;;;;;4991366;28;20140;-71
2022/01/20 08:03:24;;;;;;;69.10;47.20;;;1.60;99.90;;;;;;5006983;28;20052;-71
2022/01/20 08:05:52;;;;;;;35.17;19.52;;;1.60;99.90;;;;;;5007024;28;20038;-71
2022/01/20 08:08:19;;;;;;;23.75;15.52;;;1.60;99.90;;;;;;5008761;28;20057;-76
2022/01/20 08:10:46;;;;;;;17.48;9.75;;;1.60;99.90;;;;;;5007192;28;20136;-74
2022/01/20 08:13:13;;;;;;;14.23;6.88;;;1.50;99.90;;;;;;4995890;28;20042;-76
2022/01/20 08:15:45;;;;;;;9.68;5.85;;;1.50;99.90;;;;;;4998820;28;20057;-73
2022/01/20 08:18:13;;;;;;;13.25;4.70;;;1.50;99.90;;;;;;4972602;28;20050;-73
2022/01/20 08:20:40;;;;;;;7.57;4.07;;;1.50;99.90;;;;;;4988721;28;20089;-74
2022/01/20 08:23:07;;;;;;;9.27;3.80;;;1.50;99.90;;;;;;4994999;28;20042;-73
2022/01/20 08:25:35;;;;;;;7.60;4.18;;;1.60;99.90;;;;;;5002850;28;20523;-75
2022/01/20 08:28:03;;;;;;;8.43;3.63;;;1.50;99.90;;;;;;5009440;28;20113;-76
2022/01/20 08:30:30;;;;;;;4.28;2.72;;;1.60;99.90;;;;;;5009621;28;20053;-77
2022/01/20 08:32:57;;;;;;;6.35;2.50;;;1.60;99.90;;;;;;5001531;28;20133;-75
2022/01/20 08:35:24;;;;;;;4.50;3.22;;;1.60;99.90;;;;;;4992023;28;20125;-76
2022/01/20 08:37:51;;;;;;;3.78;2.28;;;1.60;99.90;;;;;;5008207;28;20077;-75
2022/01/20 08:40:22;;;;;;;3.40;2.20;;;1.60;99.90;;;;;;5009982;28;20050;-78
2022/01/20 08:42:50;;;;;;;4.30;2.25;;;1.60;99.90;;;;;;5027628;28;20112;-76
2022/01/20 08:45:21;;;;;;;6.43;2.45;;;1.70;99.90;;;;;;5032095;28;20050;-77
2022/01/20 08:47:52;;;;;;;4.78;2.50;;;1.70;99.90;;;;;;5000040;28;20049;-74
2022/01/20 08:50:19;;;;;;;13.90;9.82;;;1.70;99.90;;;;;;5015446;28;20049;-77
2022/01/20 08:52:46;;;;;;;36.20;16.23;;;1.80;99.90;;;;;;5032183;28;20053;-74
2022/01/20 08:55:14;;;;;;;13.38;7.22;;;2.00;99.90;;;;;;5004240;28;20045;-73
2022/01/20 08:57:41;;;;;;;11.55;5.90;;;2.10;99.90;;;;;;5015460;28;20053;-76
2022/01/20 09:00:09;;;;;;;15.43;4.50;;;2.20;99.90;;;;;;5018144;28;20488;-77
2022/01/20 09:02:36;;;;;;;7.25;3.38;;;2.20;99.90;;;;;;5027538;28;20045;-74
2022/01/20 09:05:04;;;;;;;7.63;2.58;;;2.30;99.90;;;;;;5025110;28;20081;-72
2022/01/20 09:07:31;;;;;;;5.72;2.63;;;2.30;99.90;;;;;;5033342;28;20057;-69
2022/01/20 09:10:00;;;;;;;9.48;3.13;;;2.30;99.90;;;;;;5054645;28;20040;-69
2022/01/20 09:17:47;;;;;;;20.92;14.85;;;2.40;99.90;;;;;;5013306;28;20046;-71
2022/01/20 09:20:14;;;;;;;11.18;6.13;;;2.50;99.90;;;;;;5020917;28;20140;-73
2022/01/20 09:22:41;;;;;;;8.90;5.88;;;2.60;99.90;;;;;;5017297;28;20081;-71
2022/01/20 09:25:08;;;;;;;20.77;12.77;;;2.70;99.90;;;;;;5033990;28;20041;-73
2022/01/20 09:27:35;;;;;;;41.05;22.52;;;2.70;99.90;;;;;;5024312;28;20061;-70
2022/01/20 09:30:04;;;;;;;27.92;17.98;;;2.80;99.90;;;;;;5026636;28;20091;-74
2022/01/20 09:32:38;;;;;;;159.83;138.07;;;2.80;99.90;;;;;;5015887;28;20128;-70
2022/01/20 09:35:05;;;;;;;28.42;22.23;;;2.90;99.90;;;;;;5033878;28;20303;-71
2022/01/20 09:37:34;;;;;;;18.70;12.23;;;3.00;99.90;;;;;;5034548;28;20124;-71
2022/01/20 09:40:01;;;;;;;16.67;9.50;;;3.00;99.90;;;;;;5034642;28;20108;-70
2022/01/20 09:42:28;;;;;;;11.95;7.03;;;3.00;99.90;;;;;;5027183;28;20051;-70
2022/01/20 09:44:55;;;;;;;12.38;4.97;;;3.10;99.90;;;;;;5016222;28;20093;-71
2022/01/20 09:47:24;;;;;;;7.43;3.63;;;3.10;99.90;;;;;;5033721;28;20054;-75
2022/01/20 09:49:53;;;;;;;5.50;2.88;;;3.20;99.90;;;;;;5016739;28;20485;-71
2022/01/20 09:52:22;;;;;;;12.88;3.50;;;3.20;99.90;;;;;;5033265;28;20064;-70
2022/01/20 09:54:49;;;;;;;5.90;2.70;;;3.30;99.90;;;;;;5000860;28;20045;-71
2022/01/20 09:57:16;;;;;;;6.88;2.85;;;3.30;99.90;;;;;;5016717;28;20136;-70
2022/01/20 09:59:43;;;;;;;7.72;3.33;;;3.40;99.90;;;;;;5033075;28;20049;-70
2022/01/20 10:02:17;;;;;;;8.50;3.00;;;3.40;99.90;;;;;;5033958;28;20132;-70
2022/01/20 10:04:44;;;;;;;10.50;3.67;;;3.40;99.90;;;;;;5033464;28;20085;-70
2022/01/20 10:07:13;;;;;;;8.65;2.70;;;3.40;99.90;;;;;;5032543;28;20484;-70
2022/01/20 10:09:45;;;;;;;9.48;3.60;;;3.40;99.90;;;;;;5032391;28;20084;-70
2022/01/20 10:12:14;;;;;;;9.65;3.38;;;3.40;99.90;;;;;;5029394;28;20123;-70
2022/01/20 10:14:46;;;;;;;9.73;3.75;;;3.50;99.90;;;;;;4983938;28;20510;-70
2022/01/20 10:17:15;;;;;;;11.93;4.85;;;3.50;99.90;;;;;;5013717;28;20050;-70
2022/01/20 10:19:43;;;;;;;8.30;3.85;;;3.50;99.90;;;;;;5013743;28;20064;-71
2022/01/20 10:22:23;;;;;;;9.13;3.35;;;3.60;99.90;;;;;;5029174;28;20041;-71
2022/01/20 10:25:08;;;;;;;7.13;2.90;;;3.60;99.90;;;;;;5012544;28;20508;-70
2022/01/20 10:27:45;;;;;;;19.40;10.25;;;3.70;99.90;;;;;;4996040;28;20553;-72
2022/01/20 10:30:12;;;;;;;49.72;28.42;;;3.70;99.90;;;;;;5028702;28;20492;-72
2022/01/20 10:32:47;;;;;;;17.60;9.93;;;3.70;99.90;;;;;;5033065;28;20132;-72
2022/01/20 10:35:18;;;;;;;13.70;6.05;;;3.80;99.90;;;;;;5032041;28;20045;-72
2022/01/20 10:38:03;;;;;;;9.40;4.40;;;3.80;99.90;;;;;;5033352;28;20045;-72
2022/01/20 10:40:30;;;;;;;11.73;3.38;;;3.80;99.90;;;;;;5017020;28;20399;-72
2022/01/20 10:42:57;;;;;;;10.25;4.20;;;3.90;99.90;;;;;;5015300;28;20053;-72
2022/01/20 10:45:27;;;;;;;10.45;3.65;;;3.90;99.90;;;;;;5032682;28;20063;-72
2022/01/20 10:47:54;;;;;;;;;;;4.00;99.90;;;;;;5033414;28;20045;-72
2022/01/20 10:50:26;;;;;;;6.70;3.80;;;4.00;99.90;;;;;;5033131;28;20192;-72
2022/01/20 10:52:54;;;;;;;5.72;2.75;;;4.10;99.90;;;;;;5015023;28;20049;-72
2022/01/20 10:55:33;;;;;;;6.20;3.00;;;4.10;99.90;;;;;;5032299;28;20488;-72
2022/01/20 10:58:16;;;;;;;12.73;3.95;;;4.10;99.90;;;;;;4997786;28;20053;-72
2022/01/20 11:00:46;;;;;;;10.30;3.15;;;4.10;99.20;;;;;;5031865;28;20046;-73
2022/01/20 11:03:13;;;;;;;10.85;2.42;;;4.20;99.90;;;;;;5014601;28;20068;-73
2022/01/20 11:05:41;;;;;;;11.77;2.95;;;4.20;99.90;;;;;;5044161;28;20128;-72
2022/01/20 11:08:08;;;;;;;7.32;2.45;;;4.20;99.90;;;;;;5027758;28;20528;-72
2022/01/20 11:10:39;;;;;;;7.18;2.55;;;4.30;99.90;;;;;;5012925;28;20049;-69
2022/01/20 11:13:06;;;;;;;11.15;3.90;;;4.30;99.90;;;;;;5026883;28;20512;-72
2022/01/20 11:15:33;;;;;;;8.95;3.55;;;4.30;99.90;;;;;;5031681;28;20046;-72
2022/01/20 11:18:00;;;;;;;7.50;2.67;;;4.30;99.90;;;;;;5031688;28;20426;-72
2022/01/20 11:20:30;;;;;;;10.23;3.83;;;4.30;99.90;;;;;;5032564;28;20141;-72
2022/01/20 11:22:58;;;;;;;7.32;2.30;;;4.40;99.90;;;;;;5014928;28;20056;-72
2022/01/20 11:25:27;;;;;;;11.40;2.60;;;4.50;98.70;;;;;;5014491;28;20121;-72
2022/01/20 11:28:08;;;;;;;6.20;2.20;;;4.50;97.90;;;;;;5031116;28;20084;-73
2022/01/20 11:30:39;;;;;;;7.50;2.70;;;4.50;99.50;;;;;;4997784;28;20124;-72
2022/01/20 11:33:09;;;;;;;7.15;3.05;;;4.50;98.30;;;;;;4989100;28;20064;-72
2022/01/20 11:35:56;;;;;;;9.80;3.38;;;4.50;96.70;;;;;;5033125;28;20128;-73
2022/01/20 11:38:43;;;;;;;5.47;2.05;;;4.50;95.50;;;;;;5015360;28;20096;-73
2022/01/20 11:41:10;;;;;;;6.55;2.60;;;4.60;95.50;;;;;;5018483;28;20128;-72
2022/01/20 11:43:42;;;;;;;24.05;13.68;;;4.60;95.50;;;;;;5014036;28;20053;-76
2022/01/20 11:46:13;;;;;;;13.32;5.35;;;4.60;95.00;;;;;;5018188;28;20120;-68
2022/01/20 11:48:49;;;;;;;10.00;3.47;;;4.60;94.40;;;;;;5008187;28;20052;-70
2022/01/20 11:51:19;;;;;;;12.05;4.22;;;4.60;93.80;;;;;;5027662;28;20050;-70
2022/01/20 11:53:56;;;;;;;;;;;4.60;92.80;;;;;;5044479;28;20158;-69
2022/01/20 11:56:33;;;;;;;4.70;2.00;;;4.60;92.20;;;;;;5032762;28;19921;-69
2022/01/20 11:59:01;;;;;;;8.60;2.58;;;4.60;93.60;;;;;;5023812;28;20497;-69
2022/01/20 12:01:30;;;;;;;8.13;3.88;;;4.70;94.90;;;;;;5039974;28;20049;-67
2022/01/20 12:03:57;;;;;;;11.00;3.00;;;4.70;93.20;;;;;;5015807;28;20049;-68
2022/01/20 12:06:25;;;;;;;9.85;3.00;;;4.80;92.20;;;;;;5013257;28;20136;-68
2022/01/20 12:08:54;;;;;;;13.77;2.90;;;4.80;92.30;;;;;;5039723;28;20055;-71
2022/01/20 12:11:30;;;;;;;8.50;2.30;;;4.80;92.90;;;;;;5031879;28;20056;-73
2022/01/20 12:13:57;;;;;;;7.70;3.95;;;4.80;93.40;;;;;;5028235;28;20124;-69
2022/01/20 12:16:24;;;;;;;12.02;3.38;;;4.80;94.60;;;;;;5050505;28;20046;-70
2022/01/20 12:18:51;;;;;;;11.10;3.58;;;4.80;92.80;;;;;;5019477;28;20049;-70
2022/01/20 12:21:18;;;;;;;6.82;4.15;;;4.90;92.40;;;;;;5035486;28;20049;-76
2022/01/20 12:23:46;;;;;;;10.07;2.65;;;4.80;92.50;;;;;;5004331;28;20046;-80
2022/01/20 12:26:13;;;;;;;8.70;2.72;;;4.90;92.50;;;;;;5019730;28;20408;-75
2022/01/20 12:28:40;;;;;;;8.07;2.90;;;4.90;91.10;;;;;;5022774;28;20053;-72
2022/01/20 12:31:09;;;;;;;10.05;2.60;;;4.90;91.20;;;;;;5033539;28;20140;-73
2022/01/20 12:33:43;;;;;;;6.10;2.10;;;4.90;92.20;;;;;;5034781;28;20053;-73
2022/01/20 12:36:14;;;;;;;8.63;2.63;;;5.00;91.90;;;;;;5020660;28;20045;-75
2022/01/20 12:38:41;;;;;;;8.25;2.75;;;5.00;91.40;;;;;;5028624;28;20513;-75
2022/01/20 12:41:13;;;;;;;4.72;2.55;;;5.00;91.00;;;;;;5033990;28;20052;-75
2022/01/20 12:43:44;;;;;;;10.18;2.58;;;5.10;90.90;;;;;;5017339;28;20046;-73
2022/01/20 12:46:38;;;;;;;4.53;2.38;;;5.00;90.20;;;;;;5000652;28;20052;-74
2022/01/20 12:49:13;;;;;;;9.90;2.67;;;5.10;88.30;;;;;;5010797;28;20053;-78
2022/01/20 12:51:45;;;;;;;18.58;9.68;;;5.10;90.20;;;;;;5011716;28;20230;-85
2022/01/20 12:54:17;;;;;;;11.73;4.43;;;5.10;90.80;;;;;;5006680;28;20084;-76
2022/01/20 12:56:46;;;;;;;10.45;4.30;;;5.20;90.10;;;;;;5028002;28;20501;-81
2022/01/20 12:59:20;;;;;;;8.70;2.80;;;5.20;90.90;;;;;;5026739;28;20110;-76
2022/01/20 13:02:07;;;;;;;;;;;5.20;89.60;;;;;;4990372;28;20058;-75
2022/01/20 13:04:36;;;;;;;6.20;2.00;;;5.20;85.30;;;;;;5016557;28;19956;-75
2022/01/20 13:07:04;;;;;;;8.63;2.25;;;5.30;88.20;;;;;;5048918;28;20544;-74
2022/01/20 13:09:48;;;;;;;5.57;2.30;;;5.30;90.00;;;;;;5017617;28;20071;-75
2022/01/20 13:12:17;;;;;;;5.90;2.63;;;5.40;91.30;;;;;;5017767;28;20107;-75
2022/01/20 13:14:48;;;;;;;9.93;2.90;;;5.50;90.10;;;;;;5017250;28;20057;-73
2022/01/20 13:17:19;;;;;;;6.65;2.38;;;5.60;86.70;;;;;;5016775;28;20128;-73
2022/01/20 13:19:47;;;;;;;6.00;1.70;;;5.70;90.30;;;;;;5033301;28;20548;-75
2022/01/20 13:22:38;;;;;;;5.35;2.15;;;5.70;85.40;;;;;;5024603;28;20056;-75
2022/01/20 13:25:13;;;;;;;8.57;2.63;;;5.70;86.90;;;;;;5001825;28;20385;-74
2022/01/20 13:27:57;;;;;;;7.22;2.50;;;5.80;84.40;;;;;;4997229;28;20574;-74
2022/01/20 13:30:36;;;;;;;6.57;1.83;;;5.80;82.30;;;;;;5014878;28;20107;-74
2022/01/20 13:33:05;;;;;;;7.00;2.65;;;5.80;85.20;;;;;;5034372;28;20077;-74
2022/01/20 13:35:41;;;;;;;7.55;1.60;;;5.80;87.30;;;;;;5034301;28;20053;-74
2022/01/20 13:38:08;;;;;;;12.65;2.83;;;5.90;85.40;;;;;;5033186;28;20061;-73
2022/01/20 13:40:37;;;;;;;4.57;2.40;;;5.90;86.10;;;;;;5034574;28;20048;-74
2022/01/20 13:45:45;;;;;;;4.53;1.85;;;6.00;84.30;;;;;;5015946;28;20053;-74
2022/01/20 13:48:13;;;;;;;7.40;3.17;;;6.00;86.50;;;;;;5016560;28;20265;-73
2022/01/20 13:50:44;;;;;;;6.25;1.50;;;6.00;87.20;;;;;;5016543;28;20065;-75
2022/01/20 13:53:16;;;;;;;6.63;1.95;;;6.00;84.00;;;;;;5032694;28;20049;-74
2022/01/20 13:55:44;;;;;;;8.73;2.25;;;6.00;84.00;;;;;;5019287;28;20045;-73
2022/01/20 13:58:25;;;;;;;9.95;2.13;;;6.00;83.00;;;;;;4982464;28;20505;-75
2022/01/20 14:00:53;;;;;;;10.40;1.92;;;5.90;80.10;;;;;;5014151;28;20534;-73
2022/01/20 14:03:20;;;;;;;9.70;2.97;;;5.90;82.40;;;;;;5032636;28;20057;-80
2022/01/20 14:05:47;;;;;;;28.25;16.77;;;5.90;79.60;;;;;;5015934;28;20452;-77
2022/01/20 14:08:14;;;;;;;9.82;3.92;;;5.90;81.60;;;;;;5015441;28;20056;-75
2022/01/20 14:10:41;;;;;;;11.63;3.40;;;5.90;82.00;;;;;;5015642;28;20465;-75